createdAt,value
2018-11-28T00:02:20.990Z,2.67
2018-11-28T00:07:20.819Z,3.80
2018-11-28T00:09:48.037Z,3.45
2018-11-28T00:12:15.213Z,3.10
2018-11-28T00:14:42.381Z,3.92
2018-11-28T00:17:09.469Z,4.10
2018-11-28T00:19:36.516Z,3.35
2018-11-28T00:22:03.751Z,3.55
2018-11-28T00:24:30.753Z,3.65
2018-11-28T00:26:57.915Z,3.55
2018-11-28T00:29:25.001Z,4.33
2018-11-28T00:31:52.317Z,3.42
2018-11-28T00:34:19.441Z,3.55
2018-11-28T00:36:47.534Z,3.72
2018-11-28T00:39:14.702Z,3.83
2018-11-28T00:41:41.877Z,3.90
2018-11-28T00:44:09.165Z,3.50
2018-11-28T00:46:36.387Z,3.80
2018-11-28T00:49:04.509Z,3.75
2018-11-28T00:51:31.559Z,4.10
2018-11-28T00:53:58.662Z,4.03
2018-11-28T00:56:25.875Z,3.47
2018-11-28T00:58:52.987Z,3.37
2018-11-28T01:01:19.943Z,3.70
2018-11-28T01:03:47.243Z,3.65
2018-11-28T01:06:14.518Z,3.52
2018-11-28T01:08:41.879Z,3.92
2018-11-28T01:11:09.183Z,3.58
2018-11-28T01:13:36.443Z,4.05
2018-11-28T01:16:03.796Z,3.30
2018-11-28T01:18:30.952Z,3.90
2018-11-28T01:20:58.304Z,3.72
2018-11-28T01:23:25.225Z,3.70
2018-11-28T01:25:52.594Z,3.90
2018-11-28T01:28:19.877Z,3.42
2018-11-28T01:30:47.256Z,4.00
2018-11-28T01:33:14.220Z,3.83
2018-11-28T01:35:41.409Z,3.95
2018-11-28T01:38:08.560Z,3.72
2018-11-28T01:40:35.740Z,3.47
2018-11-28T01:43:03.254Z,4.22
2018-11-28T01:45:30.319Z,3.30
2018-11-28T01:47:57.660Z,4.00
2018-11-28T01:50:25.970Z,3.77
2018-11-28T01:52:53.211Z,3.30
2018-11-28T01:55:20.619Z,2.60
2018-11-28T01:57:47.823Z,3.30
2018-11-28T02:00:15.570Z,3.67
2018-11-28T02:02:43.255Z,3.85
2018-11-28T02:05:10.163Z,2.90
2018-11-28T02:07:37.658Z,3.22
2018-11-28T02:10:04.701Z,4.58
2018-11-28T02:12:31.915Z,3.35
2018-11-28T02:14:58.976Z,2.83
2018-11-28T02:17:26.173Z,3.77
2018-11-28T02:19:53.176Z,2.95
2018-11-28T02:22:20.320Z,3.62
2018-11-28T02:24:47.272Z,3.20
2018-11-28T02:27:14.616Z,3.33
2018-11-28T02:29:41.682Z,3.10
2018-11-28T02:32:08.853Z,3.42
2018-11-28T02:34:35.969Z,3.60
2018-11-28T02:37:03.321Z,3.62
2018-11-28T02:39:30.303Z,3.17
2018-11-28T02:41:57.335Z,3.17
2018-11-28T02:44:24.574Z,3.33
2018-11-28T02:46:51.832Z,3.40
2018-11-28T02:49:19.091Z,3.65
2018-11-28T02:51:47.342Z,3.22
2018-11-28T02:54:15.376Z,2.77
2018-11-28T02:56:42.459Z,2.75
2018-11-28T02:59:09.646Z,2.90
2018-11-28T03:01:37.264Z,2.95
2018-11-28T03:04:04.257Z,3.20
2018-11-28T03:06:31.506Z,3.37
2018-11-28T03:08:58.760Z,2.85
2018-11-28T03:11:25.991Z,2.92
2018-11-28T03:13:53.231Z,2.62
2018-11-28T03:16:20.613Z,3.00
2018-11-28T03:18:47.899Z,2.75
2018-11-28T03:21:15.315Z,2.75
2018-11-28T03:23:42.471Z,3.05
2018-11-28T03:26:10.543Z,2.80
2018-11-28T03:28:37.746Z,2.92
2018-11-28T03:31:04.841Z,3.33
2018-11-28T03:33:32.218Z,3.05
2018-11-28T03:35:59.346Z,3.27
2018-11-28T03:38:26.645Z,2.77
2018-11-28T03:40:53.664Z,3.00
2018-11-28T03:43:20.951Z,3.20
2018-11-28T03:45:48.144Z,2.90
2018-11-28T03:48:15.500Z,3.05
2018-11-28T03:50:42.855Z,3.10
2018-11-28T03:53:10.859Z,2.92
2018-11-28T03:55:37.877Z,2.80
2018-11-28T03:58:06.153Z,3.40
2018-11-28T04:00:33.314Z,3.37
2018-11-28T04:03:00.707Z,3.70
2018-11-28T04:05:27.753Z,2.90
2018-11-28T04:07:55.070Z,3.10
2018-11-28T04:10:22.104Z,3.12
2018-11-28T04:12:49.721Z,3.42
2018-11-28T04:15:16.827Z,3.45
2018-11-28T04:17:44.272Z,2.77
2018-11-28T04:20:11.624Z,2.90
2018-11-28T04:22:38.535Z,3.30
2018-11-28T04:25:05.976Z,2.50
2018-11-28T04:27:33.196Z,3.00
2018-11-28T04:30:00.795Z,2.75
2018-11-28T04:32:28.170Z,2.45
2018-11-28T04:34:55.272Z,3.30
2018-11-28T04:37:22.843Z,3.22
2018-11-28T04:39:50.548Z,3.15
2018-11-28T04:42:17.774Z,3.80
2018-11-28T04:44:45.254Z,3.20
2018-11-28T04:47:12.541Z,3.75
2018-11-28T04:49:40.358Z,3.35
2018-11-28T04:52:08.034Z,3.12
2018-11-28T04:54:35.292Z,2.65
2018-11-28T04:57:02.258Z,3.37
2018-11-28T04:59:29.724Z,2.70
2018-11-28T05:01:56.887Z,3.30
2018-11-28T05:04:24.133Z,3.35
2018-11-28T05:06:51.483Z,3.22
2018-11-28T05:09:18.759Z,3.72
2018-11-28T05:11:45.805Z,2.70
2018-11-28T05:14:13.245Z,2.67
2018-11-28T05:16:40.403Z,3.60
2018-11-28T05:19:07.648Z,4.03
2018-11-28T05:21:34.799Z,3.33
2018-11-28T05:24:02.455Z,4.30
2018-11-28T05:26:29.667Z,3.17
2018-11-28T05:28:57.110Z,2.92
2018-11-28T05:31:24.528Z,4.00
2018-11-28T05:33:51.905Z,3.40
2018-11-28T05:36:19.639Z,4.10
2018-11-28T05:38:46.783Z,3.72
2018-11-28T05:41:13.625Z,3.77
2018-11-28T05:43:40.783Z,3.87
2018-11-28T05:46:08.039Z,3.70
2018-11-28T05:48:35.793Z,2.77
2018-11-28T05:51:03.157Z,3.22
2018-11-28T05:53:30.531Z,2.75
2018-11-28T05:55:57.668Z,2.98
2018-11-28T05:58:24.914Z,2.90
2018-11-28T06:00:52.373Z,3.35
2018-11-28T06:03:20.217Z,3.65
2018-11-28T06:05:47.391Z,3.42
2018-11-28T06:08:14.528Z,3.22
2018-11-28T06:10:41.698Z,4.08
2018-11-28T06:13:09.095Z,3.95
2018-11-28T06:15:36.305Z,4.08
2018-11-28T06:18:03.541Z,5.00
2018-11-28T06:20:30.945Z,4.37
2018-11-28T06:22:58.391Z,4.42
2018-11-28T06:25:26.060Z,4.65
2018-11-28T06:27:53.576Z,4.58
2018-11-28T06:30:21.341Z,3.77
2018-11-28T06:32:51.502Z,4.90
2018-11-28T06:35:16.853Z,3.90
2018-11-28T06:37:44.541Z,4.67
2018-11-28T06:40:11.991Z,4.22
2018-11-28T06:42:39.467Z,4.47
2018-11-28T06:45:06.733Z,5.42
2018-11-28T06:47:34.205Z,5.47
2018-11-28T06:50:01.576Z,5.15
2018-11-28T06:52:28.920Z,5.80
2018-11-28T06:54:56.124Z,5.33
2018-11-28T06:57:23.188Z,4.95
2018-11-28T06:59:50.880Z,5.10
2018-11-28T07:02:18.022Z,4.80
2018-11-28T07:04:45.558Z,4.92
2018-11-28T07:07:13.311Z,4.78
2018-11-28T07:09:40.362Z,4.67
2018-11-28T07:12:07.568Z,5.55
2018-11-28T07:14:34.971Z,4.60
2018-11-28T07:17:02.482Z,4.60
2018-11-28T07:19:29.581Z,4.50
2018-11-28T07:21:56.518Z,4.60
2018-11-28T07:24:23.803Z,4.70
2018-11-28T07:26:50.919Z,5.17
2018-11-28T07:29:18.179Z,5.67
2018-11-28T07:31:45.114Z,4.67
2018-11-28T07:34:12.165Z,5.85
2018-11-28T07:36:39.522Z,5.17
2018-11-28T07:39:07.404Z,5.08
2018-11-28T07:41:34.237Z,5.15
2018-11-28T07:44:01.299Z,4.70
2018-11-28T07:46:28.341Z,5.22
2018-11-28T07:48:56.047Z,4.62
2018-11-28T07:51:23.264Z,4.95
2018-11-28T07:53:50.461Z,5.20
2018-11-28T07:56:17.639Z,4.85
2018-11-28T07:58:44.815Z,4.53
2018-11-28T08:01:11.986Z,4.95
2018-11-28T08:03:39.276Z,3.65
2018-11-28T08:06:06.298Z,5.05
2018-11-28T08:08:33.284Z,4.50
2018-11-28T08:11:00.158Z,5.30
2018-11-28T08:13:27.343Z,5.60
2018-11-28T08:15:54.525Z,4.85
2018-11-28T08:18:21.486Z,4.92
2018-11-28T08:20:48.433Z,5.72
2018-11-28T08:23:15.838Z,4.70
2018-11-28T08:25:42.948Z,4.87
2018-11-28T08:28:09.849Z,4.05
2018-11-28T08:30:37.743Z,4.30
2018-11-28T08:33:04.498Z,4.30
2018-11-28T08:35:31.461Z,4.15
2018-11-28T08:37:58.340Z,5.15
2018-11-28T08:40:25.200Z,4.62
2018-11-28T08:42:51.960Z,4.40
2018-11-28T08:45:18.920Z,5.58
2018-11-28T08:47:45.801Z,5.15
2018-11-28T08:50:12.962Z,4.72
2018-11-28T08:52:39.861Z,5.37
2018-11-28T08:55:07.323Z,4.60
2018-11-28T08:57:34.082Z,5.50
2018-11-28T09:00:00.940Z,5.10
2018-11-28T09:02:27.802Z,4.87
2018-11-28T09:04:54.687Z,4.58
2018-11-28T09:07:21.602Z,5.12
2018-11-28T09:09:49.766Z,5.05
2018-11-28T09:12:15.650Z,4.35
2018-11-28T09:14:42.619Z,4.00
2018-11-28T09:17:15.058Z,5.08
2018-11-28T09:19:36.885Z,4.42
2018-11-28T09:22:03.846Z,4.37
2018-11-28T09:24:30.806Z,3.70
2018-11-28T09:26:57.555Z,5.47
2018-11-28T09:29:25.435Z,3.98
2018-11-28T09:31:52.937Z,4.75
2018-11-28T09:34:20.096Z,4.22
2018-11-28T09:36:47.178Z,5.15
2018-11-28T09:39:14.377Z,4.95
2018-11-28T09:41:41.404Z,3.70
2018-11-28T09:44:08.611Z,4.12
2018-11-28T09:46:35.411Z,5.28
2018-11-28T09:49:03.372Z,4.08
2018-11-28T09:51:30.512Z,5.25
2018-11-28T09:53:58.391Z,5.37
2018-11-28T09:56:25.561Z,4.67
2018-11-28T09:58:52.541Z,4.70
2018-11-28T10:01:19.623Z,5.58
2018-11-28T10:03:46.427Z,5.03
2018-11-28T10:06:14.167Z,5.62
2018-11-28T10:08:41.163Z,4.85
2018-11-28T10:11:08.196Z,5.37
2018-11-28T10:13:35.286Z,6.95
2018-11-28T10:16:02.349Z,7.28
2018-11-28T10:18:29.101Z,6.35
2018-11-28T10:20:56.288Z,7.30
2018-11-28T10:23:23.349Z,7.20
2018-11-28T10:25:50.327Z,6.78
2018-11-28T10:28:17.378Z,6.25
2018-11-28T10:30:44.397Z,7.35
2018-11-28T10:33:11.311Z,5.50
2018-11-28T10:35:38.191Z,6.03
2018-11-28T10:38:05.050Z,6.10
2018-11-28T10:40:32.121Z,7.00
2018-11-28T10:42:59.184Z,6.67
2018-11-28T10:45:26.047Z,6.33
2018-11-28T10:47:53.010Z,6.40
2018-11-28T10:50:19.884Z,6.08
2018-11-28T10:52:46.747Z,7.15
2018-11-28T10:55:13.744Z,7.00
2018-11-28T10:57:40.582Z,6.83
2018-11-28T11:00:07.541Z,5.22
2018-11-28T11:02:34.309Z,5.45
2018-11-28T11:05:01.264Z,5.92
2018-11-28T11:07:28.140Z,5.70
2018-11-28T11:09:55.093Z,5.15
2018-11-28T11:12:21.967Z,5.35
2018-11-28T11:14:48.837Z,5.47
2018-11-28T11:17:15.795Z,5.00
2018-11-28T11:19:43.209Z,5.25
2018-11-28T11:22:10.463Z,5.78
2018-11-28T11:24:37.244Z,5.40
2018-11-28T11:27:04.790Z,5.22
2018-11-28T11:29:32.238Z,5.33
2018-11-28T11:32:00.383Z,5.80
2018-11-28T11:37:02.173Z,5.87
2018-11-28T11:39:29.888Z,5.50
2018-11-28T11:52:11.595Z,5.53
2018-11-28T11:54:39.301Z,5.20
2018-11-28T11:57:07.725Z,5.50
2018-11-28T11:59:35.183Z,5.33
2018-11-28T12:02:04.695Z,5.10
2018-11-28T12:04:32.471Z,4.20
2018-11-28T12:07:00.350Z,3.80
2018-11-28T12:09:27.520Z,4.67
2018-11-28T12:11:54.703Z,4.58
2018-11-28T12:14:21.631Z,4.85
2018-11-28T12:16:48.527Z,4.20
2018-11-28T12:19:15.582Z,4.60
2018-11-28T12:21:43.585Z,4.10
2018-11-28T12:24:10.101Z,3.70
2018-11-28T12:26:37.205Z,3.70
2018-11-28T12:29:04.177Z,4.70
2018-11-28T12:31:31.347Z,4.87
2018-11-28T12:33:58.287Z,4.33
2018-11-28T12:36:25.280Z,3.90
2018-11-28T12:38:52.315Z,4.33
2018-11-28T12:41:19.406Z,4.45
2018-11-28T12:43:46.676Z,5.25
2018-11-28T12:46:14.290Z,4.45
2018-11-28T12:48:41.296Z,4.60
2018-11-28T12:51:09.456Z,3.72
2018-11-28T12:53:37.207Z,4.72
2018-11-28T12:56:04.188Z,4.50
2018-11-28T12:58:31.872Z,4.08
2018-11-28T13:00:58.954Z,4.80
2018-11-28T13:03:25.793Z,5.25
2018-11-28T13:05:52.748Z,4.25
2018-11-28T13:08:19.640Z,4.83
2018-11-28T13:10:46.504Z,4.33
2018-11-28T13:13:13.477Z,4.97
2018-11-28T13:15:40.384Z,4.55
2018-11-28T13:18:07.305Z,6.30
2018-11-28T13:20:35.185Z,5.25
2018-11-28T13:23:02.047Z,5.20
2018-11-28T13:25:29.118Z,4.20
2018-11-28T13:27:55.998Z,5.10
2018-11-28T13:30:23.871Z,5.42
2018-11-28T13:32:51.351Z,5.05
2018-11-28T13:35:18.223Z,6.60
2018-11-28T13:37:45.180Z,5.12
2018-11-28T13:40:12.051Z,5.05
2018-11-28T13:42:39.015Z,5.17
2018-11-28T13:45:06.185Z,5.67
2018-11-28T13:47:33.666Z,5.70
2018-11-28T13:50:00.538Z,5.70
2018-11-28T13:52:27.507Z,6.00
2018-11-28T13:55:37.656Z,5.85
2018-11-28T13:57:22.187Z,7.62
2018-11-28T13:59:48.705Z,5.37
2018-11-28T14:02:15.474Z,5.42
2018-11-28T14:04:42.536Z,6.72
2018-11-28T14:07:09.616Z,5.80
2018-11-28T14:09:36.576Z,6.25
2018-11-28T14:12:03.434Z,6.87
2018-11-28T14:14:30.198Z,6.20
2018-11-28T14:16:57.278Z,5.72
2018-11-28T14:19:24.138Z,5.72
2018-11-28T14:21:52.122Z,6.00
2018-11-28T14:24:18.998Z,5.97
2018-11-28T14:26:46.059Z,6.55
2018-11-28T14:29:12.917Z,7.35
2018-11-28T14:31:39.919Z,7.75
2018-11-28T14:34:06.860Z,6.42
2018-11-28T14:36:33.718Z,7.47
2018-11-28T14:39:00.618Z,8.30
2018-11-28T14:41:27.557Z,7.97
2018-11-28T14:43:54.439Z,8.78
2018-11-28T14:46:21.906Z,7.10
2018-11-28T14:48:48.861Z,7.05
2018-11-28T14:51:15.823Z,7.05
2018-11-28T14:53:47.914Z,7.70
2018-11-28T14:56:10.114Z,7.62
2018-11-28T14:58:36.932Z,7.50
2018-11-28T15:01:03.905Z,7.37
2018-11-28T15:03:31.715Z,7.35
2018-11-28T15:05:58.753Z,8.48
2018-11-28T15:08:25.958Z,8.68
2018-11-28T15:10:52.992Z,9.08
2018-11-28T15:13:20.089Z,8.48
2018-11-28T15:15:47.268Z,8.40
2018-11-28T15:18:14.459Z,9.50
2018-11-28T15:20:41.471Z,9.75
2018-11-28T15:23:09.343Z,8.55
2018-11-28T15:25:36.480Z,12.10
2018-11-28T15:28:03.526Z,11.73
2018-11-28T15:30:30.627Z,11.65
2018-11-28T15:32:57.601Z,9.80
2018-11-28T15:35:24.559Z,10.75
2018-11-28T15:37:51.603Z,10.53
2018-11-28T15:40:18.598Z,9.98
2018-11-28T15:42:46.144Z,9.73
2018-11-28T15:45:13.284Z,9.98
2018-11-28T15:47:40.785Z,9.53
2018-11-28T15:50:07.863Z,8.45
2018-11-28T15:52:34.828Z,10.82
2018-11-28T15:55:01.928Z,9.58
2018-11-28T15:57:29.134Z,10.40
2018-11-28T15:59:56.358Z,10.65
2018-11-28T16:02:24.344Z,11.12
2018-11-28T16:04:51.246Z,9.95
2018-11-28T16:07:18.200Z,10.53
2018-11-28T16:09:45.034Z,11.53
2018-11-28T16:12:12.052Z,11.33
2018-11-28T16:14:38.956Z,9.65
2018-11-28T16:17:06.129Z,12.10
2018-11-28T16:19:32.982Z,11.57
2018-11-28T16:21:59.957Z,10.70
2018-11-28T16:24:27.275Z,12.70
2018-11-28T16:26:54.205Z,12.05
2018-11-28T16:29:21.059Z,12.15
2018-11-28T16:31:47.990Z,12.03
2018-11-28T16:34:14.903Z,11.20
2018-11-28T16:36:41.983Z,10.23
2018-11-28T16:39:08.925Z,12.05
2018-11-28T16:41:35.817Z,14.00
2018-11-28T16:44:03.153Z,13.88
2018-11-28T16:46:30.035Z,12.40
2018-11-28T16:48:57.341Z,13.70
2018-11-28T16:51:24.273Z,12.88
2018-11-28T16:53:51.609Z,15.10
2018-11-28T16:56:18.766Z,13.58
2018-11-28T16:58:46.156Z,13.83
2018-11-28T17:01:13.874Z,14.60
2018-11-28T17:03:41.063Z,14.13
2018-11-28T17:06:08.453Z,15.38
2018-11-28T17:08:36.545Z,14.10
2018-11-28T17:11:03.793Z,13.43
2018-11-28T17:13:30.998Z,14.45
2018-11-28T17:15:57.833Z,11.73
2018-11-28T17:18:25.099Z,12.23
2018-11-28T17:20:52.138Z,12.45
2018-11-28T17:23:19.561Z,12.00
2018-11-28T17:25:46.635Z,12.70
2018-11-28T17:28:14.132Z,12.30
2018-11-28T17:30:41.290Z,13.65
2018-11-28T17:33:08.667Z,14.80
2018-11-28T17:35:36.020Z,14.65
2018-11-28T17:38:03.115Z,16.62
2018-11-28T17:40:30.622Z,15.05
2018-11-28T17:42:58.167Z,15.15
2018-11-28T17:45:25.421Z,15.25
2018-11-28T17:47:52.600Z,13.93
2018-11-28T17:50:19.565Z,12.05
2018-11-28T17:52:46.840Z,14.70
2018-11-28T17:55:14.459Z,13.60
2018-11-28T17:57:41.439Z,14.87
2018-11-28T18:00:08.860Z,13.40
2018-11-28T18:02:36.337Z,13.53
2018-11-28T18:05:04.297Z,14.80
2018-11-28T18:07:31.827Z,13.32
2018-11-28T18:09:58.773Z,11.97
2018-11-28T18:12:25.902Z,15.25
2018-11-28T18:14:52.912Z,13.50
2018-11-28T18:17:21.001Z,14.30
2018-11-28T18:19:48.202Z,13.50
2018-11-28T18:22:15.176Z,14.78
2018-11-28T18:24:42.631Z,14.38
2018-11-28T18:27:10.053Z,15.85
2018-11-28T18:29:37.054Z,16.23
2018-11-28T18:32:04.791Z,16.15
2018-11-28T18:34:31.946Z,16.45
2018-11-28T18:36:59.014Z,16.25
2018-11-28T18:39:26.312Z,19.07
2018-11-28T18:41:53.213Z,15.53
2018-11-28T18:44:20.155Z,15.35
2018-11-28T18:46:47.058Z,15.28
2018-11-28T18:49:14.295Z,15.90
2018-11-28T18:51:41.115Z,16.10
2018-11-28T18:54:07.975Z,14.38
2018-11-28T18:56:35.035Z,13.08
2018-11-28T18:59:02.104Z,14.18
2018-11-28T19:01:29.183Z,16.12
2018-11-28T19:03:57.222Z,16.45
2018-11-28T19:06:24.443Z,15.35
2018-11-28T19:08:51.970Z,17.50
2018-11-28T19:11:19.411Z,18.27
2018-11-28T19:13:46.671Z,16.45
2018-11-28T19:16:14.319Z,15.45
2018-11-28T19:18:41.855Z,16.32
2018-11-28T19:21:09.138Z,15.93
2018-11-28T19:23:37.735Z,15.30
2018-11-28T19:26:04.785Z,16.48
2018-11-28T19:28:32.274Z,16.90
2018-11-28T19:30:59.276Z,16.10
2018-11-28T19:33:26.863Z,13.48
2018-11-28T19:35:53.837Z,14.40
2018-11-28T19:38:20.934Z,16.00
2018-11-28T19:40:47.921Z,13.85
2018-11-28T19:43:15.202Z,20.52
2018-11-28T19:45:42.102Z,16.97
2018-11-28T19:48:09.164Z,17.75
2018-11-28T19:50:36.702Z,16.62
2018-11-28T19:53:05.304Z,14.50
2018-11-28T19:55:32.523Z,15.68
2018-11-28T19:57:59.582Z,14.58
2018-11-28T20:00:26.829Z,14.80
2018-11-28T20:02:53.880Z,14.07
2018-11-28T20:05:21.381Z,13.28
2018-11-28T20:07:48.342Z,14.83
2018-11-28T20:10:15.300Z,19.80
2018-11-28T20:12:42.372Z,16.30
2018-11-28T20:15:09.732Z,14.83
2018-11-28T20:17:36.932Z,16.40
2018-11-28T20:20:04.708Z,16.85
2018-11-28T20:22:32.572Z,15.35
2018-11-28T20:24:59.668Z,17.80
2018-11-28T20:27:27.323Z,15.75
2018-11-28T20:29:54.563Z,15.95
2018-11-28T20:32:21.584Z,17.32
2018-11-28T20:34:48.783Z,16.57
2018-11-28T20:37:15.924Z,16.80
2018-11-28T20:39:43.250Z,17.85
2018-11-28T20:42:10.449Z,17.57
2018-11-28T20:44:37.593Z,17.12
2018-11-28T20:47:04.714Z,17.02
2018-11-28T20:49:31.922Z,16.15
2018-11-28T20:51:58.945Z,18.20
2018-11-28T20:54:26.135Z,16.97
2018-11-28T20:56:53.355Z,17.55
2018-11-28T20:59:20.597Z,15.45
2018-11-28T21:01:48.153Z,16.70
2018-11-28T21:04:15.192Z,15.93
2018-11-28T21:06:42.263Z,15.78
2018-11-28T21:09:09.402Z,14.35
2018-11-28T21:11:36.691Z,15.32
2018-11-28T21:14:04.231Z,14.40
2018-11-28T21:16:31.607Z,16.05
2018-11-28T21:18:59.339Z,14.80
2018-11-28T21:21:27.567Z,16.90
2018-11-28T21:23:55.099Z,16.00
2018-11-28T21:26:22.299Z,15.70
2018-11-28T21:28:49.580Z,15.53
2018-11-28T21:31:16.999Z,16.57
2018-11-28T21:33:44.872Z,15.32
2018-11-28T21:36:11.952Z,13.80
2018-11-28T21:38:39.838Z,13.80
2018-11-28T21:41:07.059Z,14.60
2018-11-28T21:43:34.114Z,13.68
2018-11-28T21:46:01.099Z,12.93
2018-11-28T21:48:28.159Z,14.07
2018-11-28T21:50:55.912Z,13.08
2018-11-28T21:53:23.146Z,15.00
2018-11-28T21:55:50.262Z,12.60
2018-11-28T21:58:17.309Z,12.18
2018-11-28T22:00:44.523Z,12.58
2018-11-28T22:03:11.675Z,13.15
2018-11-28T22:05:38.873Z,12.73
2018-11-28T22:08:05.999Z,12.80
2018-11-28T22:10:33.275Z,12.33
2018-11-28T22:13:00.234Z,10.30
2018-11-28T22:15:27.402Z,13.88
2018-11-28T22:17:54.570Z,11.38
2018-11-28T22:20:21.663Z,12.07
2018-11-28T22:22:48.514Z,12.98
2018-11-28T22:25:15.480Z,13.25
2018-11-28T22:27:42.344Z,12.53
2018-11-28T22:30:09.312Z,12.70
2018-11-28T22:32:36.394Z,11.97
2018-11-28T22:35:03.243Z,12.40
2018-11-28T22:37:30.424Z,11.97
2018-11-28T22:39:57.283Z,14.15
2018-11-28T22:42:24.153Z,12.60
2018-11-28T22:44:51.541Z,14.03
2018-11-28T22:47:18.497Z,13.58
2018-11-28T22:49:45.457Z,14.58
2018-11-28T22:52:12.630Z,14.10
2018-11-28T22:54:39.705Z,14.93
2018-11-28T22:57:06.664Z,13.70
2018-11-28T22:59:33.834Z,14.33
2018-11-28T23:02:00.795Z,11.80
2018-11-28T23:04:27.776Z,13.20
2018-11-28T23:06:55.754Z,13.03
2018-11-28T23:09:22.623Z,12.63
2018-11-28T23:11:49.509Z,12.98
2018-11-28T23:14:16.667Z,13.98
2018-11-28T23:16:43.626Z,14.65
2018-11-28T23:19:10.509Z,12.15
2018-11-28T23:21:37.566Z,13.00
2018-11-28T23:24:04.430Z,13.00
2018-11-28T23:26:31.233Z,12.78
2018-11-28T23:28:58.164Z,12.10
2018-11-28T23:31:25.121Z,12.85
2018-11-28T23:33:52.913Z,11.75
2018-11-28T23:36:19.783Z,12.03
2018-11-28T23:38:47.665Z,11.70
2018-11-28T23:41:14.614Z,13.90
2018-11-28T23:43:41.436Z,11.73
2018-11-28T23:46:08.327Z,15.15
2018-11-28T23:48:35.300Z,11.57
2018-11-28T23:51:02.162Z,11.85
2018-11-28T23:53:29.055Z,11.55
2018-11-28T23:55:56.021Z,10.03
2018-11-28T23:58:22.892Z,11.85
